Deus Nao Falta — CUET3 — position and weather

sailwx.info

Track history (hours):
 
Tides and Currents Weather Stations Pressure Air Temp Water Temp Dewpoint Dewpoint Depression Visibility Wind Speed Wind Dir Waves Ship Positions

Deus Nao Falta

Last reported at 2017-Dec-18 14:30 UTC. Time now 2017-Dec-18 14:55 UTC.
Position N 38°47' W 009°31'.

Length 22 m.

Type: Fishing. MMSI: 263422970.

Date/timePositionNaut miles runAvg speedWind from/ knotsBaromVisibWave heightAir tempDewpointWater temp
2017-Dec-18 14:30N 38°47' W 009°31'4 8.3
2017-Dec-18 14:01N 38°51' W 009°30'5 9.6
2017-Dec-18 13:30N 38°56' W 009°28'0 0.0
2017-Dec-18 13:01N 38°56' W 009°28'0 0.2
2017-Dec-18 12:31N 38°56' W 009°28'1 1.6
2017-Dec-18 12:01N 38°57' W 009°28'3 6.0
2017-Dec-18 11:30N 38°59' W 009°26'1 2.5
2017-Dec-18 11:01N 39°00' W 009°27'3 6.9
2017-Dec-18 10:31N 39°04' W 009°27'4 7.7
2017-Dec-18 10:00N 39°08' W 009°26'4 7.6
2017-Dec-18 09:27N 39°11' W 009°24'0 0.3
2017-Dec-18 08:39N 39°12' W 009°23'0 0.1
2017-Dec-18 08:19N 39°12' W 009°23'0 0.4
2017-Dec-18 07:41N 39°12' W 009°23'  
2017-Dec-13 06:33N 41°05' W 008°45'1 9.1
2017-Dec-13 06:23N 41°06' W 008°44'3 9.0
2017-Dec-13 06:00N 41°09' W 008°43'2 3.0
2017-Dec-13 05:30N 41°11' W 008°42'0 0.0
2017-Dec-13 05:00N 41°11' W 008°42'0 0.0
2017-Dec-13 04:30N 41°11' W 008°42'0 0.0
2017-Dec-13 04:00N 41°11' W 008°42'0 0.0
2017-Dec-13 03:30N 41°11' W 008°42'0 0.0
2017-Dec-13 03:00N 41°11' W 008°42'0 0.0
2017-Dec-13 02:30N 41°11' W 008°42'1 2.9
2017-Dec-13 02:00N 41°11' W 008°44'  
Track history (hours):
 
Tides and Currents Weather Stations Pressure Air Temp Water Temp Dewpoint Dewpoint Depression Visibility Wind Speed Wind Dir Waves Ship Positions

Deus Nao Falta

Last reported at 2017-Dec-18 14:30 UTC. Time now 2017-Dec-18 14:55 UTC.
Position N 38°47' W 009°31'.

Length 22 m.

Type: Fishing. MMSI: 263422970.

Date/timePositionNaut miles runAvg speedWind from/ knotsBaromVisibWave heightAir tempDewpointWater temp
2017-Dec-18 14:30N 38°47' W 009°31'4 8.3
2017-Dec-18 14:01N 38°51' W 009°30'5 9.6
2017-Dec-18 13:30N 38°56' W 009°28'0 0.0
2017-Dec-18 13:01N 38°56' W 009°28'0 0.2
2017-Dec-18 12:31N 38°56' W 009°28'1 1.6
2017-Dec-18 12:01N 38°57' W 009°28'3 6.0
2017-Dec-18 11:30N 38°59' W 009°26'1 2.5
2017-Dec-18 11:01N 39°00' W 009°27'3 6.9
2017-Dec-18 10:31N 39°04' W 009°27'4 7.7
2017-Dec-18 10:00N 39°08' W 009°26'4 7.6
2017-Dec-18 09:27N 39°11' W 009°24'0 0.3
2017-Dec-18 08:39N 39°12' W 009°23'0 0.1
2017-Dec-18 08:19N 39°12' W 009°23'0 0.4
2017-Dec-18 07:41N 39°12' W 009°23'  
2017-Dec-13 06:33N 41°05' W 008°45'1 9.1
2017-Dec-13 06:23N 41°06' W 008°44'3 9.0
2017-Dec-13 06:00N 41°09' W 008°43'2 3.0
2017-Dec-13 05:30N 41°11' W 008°42'0 0.0
2017-Dec-13 05:00N 41°11' W 008°42'0 0.0
2017-Dec-13 04:30N 41°11' W 008°42'0 0.0
2017-Dec-13 04:00N 41°11' W 008°42'0 0.0
2017-Dec-13 03:30N 41°11' W 008°42'0 0.0
2017-Dec-13 03:00N 41°11' W 008°42'0 0.0
2017-Dec-13 02:30N 41°11' W 008°42'1 2.9
2017-Dec-13 02:00N 41°11' W 008°44'  

Dump ship's entire track history